createdAt,value
2023-02-03T00:00:46.877Z,18.60
2023-02-03T00:03:53.000Z,33.65
2023-02-03T00:06:58.590Z,17.20
2023-02-03T00:10:05.686Z,90.85
2023-02-03T00:13:10.193Z,22.20
2023-02-03T00:16:18.187Z,23.10
2023-02-03T00:19:23.597Z,14.98
2023-02-03T00:22:29.521Z,36.85
2023-02-03T00:25:35.514Z,37.42
2023-02-03T00:28:42.581Z,28.00
2023-02-03T00:31:48.643Z,31.25
2023-02-03T00:34:55.158Z,23.30
2023-02-03T00:38:00.596Z,35.53
2023-02-03T00:41:07.337Z,33.03
2023-02-03T00:44:12.779Z,23.83
2023-02-03T00:47:19.266Z,27.38
2023-02-03T00:50:22.976Z,30.02
2023-02-03T00:53:31.169Z,32.33
2023-02-03T00:56:35.078Z,32.85
2023-02-03T00:59:39.306Z,33.55
2023-02-03T01:02:43.114Z,64.40
2023-02-03T01:05:52.211Z,32.97
2023-02-03T01:08:56.199Z,16.40
2023-02-03T01:12:06.651Z,21.58
2023-02-03T01:15:12.319Z,71.35
2023-02-03T01:18:18.767Z,43.80
2023-02-03T01:21:27.059Z,32.53
2023-02-03T01:24:34.203Z,26.92
2023-02-03T01:27:38.043Z,34.40
2023-02-03T01:30:45.759Z,20.85
2023-02-03T01:33:53.297Z,17.75
2023-02-03T01:36:59.540Z,20.30
2023-02-03T01:40:05.655Z,12.55
2023-02-03T01:43:34.369Z,12.00
2023-02-03T01:46:49.625Z,12.50
2023-02-03T01:50:18.215Z,13.73
2023-02-03T01:53:22.740Z,11.43
2023-02-03T01:56:41.929Z,8.88
2023-02-03T01:59:46.795Z,19.02
2023-02-03T02:02:51.994Z,9.48
2023-02-03T02:06:01.655Z,10.43
2023-02-03T02:09:09.340Z,9.43
2023-02-03T02:12:13.410Z,21.85
2023-02-03T02:15:27.088Z,8.57
2023-02-03T02:18:46.662Z,13.70
2023-02-03T02:22:04.120Z,8.57
2023-02-03T02:25:38.046Z,9.80
2023-02-03T02:29:17.499Z,7.07
2023-02-03T02:32:43.966Z,8.55
2023-02-03T02:36:09.681Z,7.47
2023-02-03T02:39:15.750Z,8.70
2023-02-03T02:42:45.191Z,8.43
2023-02-03T02:45:53.288Z,7.85
2023-02-03T02:49:28.987Z,7.60
2023-02-03T02:52:44.847Z,7.73
2023-02-03T02:55:54.763Z,9.38
2023-02-03T02:59:03.812Z,8.02
2023-02-03T03:02:09.650Z,29.85
2023-02-03T03:05:19.527Z,73.78
2023-02-03T03:08:53.627Z,22.35
2023-02-03T03:12:05.721Z,9.95
2023-02-03T03:15:20.877Z,7.40
2023-02-03T03:18:39.881Z,7.03
2023-02-03T03:21:50.483Z,7.35
2023-02-03T03:25:04.587Z,5.45
2023-02-03T03:28:17.607Z,16.48
2023-02-03T03:31:23.509Z,14.82
2023-02-03T03:37:48.691Z,7.47
2023-02-03T03:41:04.170Z,21.75
2023-02-03T03:44:15.222Z,6.53
2023-02-03T03:47:29.364Z,33.15
2023-02-03T03:50:54.448Z,40.28
2023-02-03T03:54:06.268Z,6.07
2023-02-03T03:57:16.104Z,4.82
2023-02-03T04:00:27.113Z,14.65
2023-02-03T04:04:06.654Z,7.22
2023-02-03T04:07:15.689Z,5.57
2023-02-03T04:10:35.291Z,11.27
2023-02-03T04:13:40.964Z,24.02
2023-02-03T04:16:47.198Z,20.00
2023-02-03T04:19:52.890Z,11.55
2023-02-03T04:22:59.460Z,21.90
2023-02-03T04:26:05.173Z,7.25
2023-02-03T04:29:11.492Z,22.98
2023-02-03T04:32:17.659Z,10.75
2023-02-03T04:35:23.516Z,8.32
2023-02-03T04:38:30.711Z,18.50
2023-02-03T04:41:36.676Z,19.45
2023-02-03T04:44:42.270Z,5.72
2023-02-03T04:47:54.388Z,6.40
2023-02-03T04:51:06.447Z,7.82
2023-02-03T04:54:13.020Z,9.32
2023-02-03T04:57:18.724Z,9.50
2023-02-03T05:00:24.594Z,10.95
2023-02-03T05:06:35.978Z,6.30
2023-02-03T05:12:43.603Z,5.13
2023-02-03T05:15:49.156Z,5.47
2023-02-03T05:18:55.353Z,20.02
2023-02-03T05:22:01.413Z,6.13
2023-02-03T05:25:07.592Z,6.30
2023-02-03T05:28:13.458Z,7.80
2023-02-03T05:31:19.369Z,5.75
2023-02-03T05:34:25.504Z,6.10
2023-02-03T05:37:31.345Z,22.92
2023-02-03T05:40:55.590Z,5.25
2023-02-03T05:44:01.481Z,4.53
2023-02-03T05:50:13.111Z,9.15
2023-02-03T05:53:19.283Z,9.63
2023-02-03T05:56:25.117Z,7.38
2023-02-03T05:59:30.668Z,8.60
2023-02-03T06:02:34.676Z,14.00
2023-02-03T06:08:52.977Z,11.68
2023-02-03T06:11:56.886Z,22.17
2023-02-03T06:15:04.107Z,22.58
2023-02-03T06:18:10.447Z,29.20
2023-02-03T06:21:16.438Z,18.77
2023-02-03T06:24:22.417Z,7.55
2023-02-03T06:27:28.784Z,28.95
2023-02-03T06:30:38.386Z,22.80
2023-02-03T06:33:46.015Z,10.75
2023-02-03T06:37:00.443Z,12.57
2023-02-03T06:40:06.779Z,21.13
2023-02-03T06:43:12.414Z,14.82
2023-02-03T06:46:21.709Z,11.63
2023-02-03T06:49:30.292Z,11.50
2023-02-03T06:52:36.151Z,15.18
2023-02-03T06:58:48.889Z,10.95
2023-02-03T07:01:58.108Z,7.45
2023-02-03T07:05:04.403Z,8.02
2023-02-03T07:08:10.065Z,11.27
2023-02-03T07:11:16.220Z,9.90
2023-02-03T07:14:20.362Z,10.65
2023-02-03T07:17:29.841Z,9.27
2023-02-03T07:20:35.938Z,8.27
2023-02-03T07:23:42.347Z,10.30
2023-02-03T07:26:48.322Z,9.25
2023-02-03T07:29:53.994Z,21.80
2023-02-03T07:32:59.622Z,11.52
2023-02-03T07:36:06.144Z,14.52
2023-02-03T07:39:12.712Z,12.70
2023-02-03T07:42:18.468Z,10.68
2023-02-03T07:45:28.749Z,12.48
2023-02-03T07:48:34.504Z,10.43
2023-02-03T07:51:40.300Z,13.48
2023-02-03T07:54:45.996Z,14.15
2023-02-03T07:57:51.690Z,12.20
2023-02-03T08:00:58.454Z,9.32
2023-02-03T08:04:06.268Z,10.05
2023-02-03T08:07:12.546Z,9.40
2023-02-03T08:10:18.818Z,19.83
2023-02-03T08:13:24.818Z,41.72
2023-02-03T08:16:30.429Z,25.42
2023-02-03T08:19:57.993Z,14.52
2023-02-03T08:23:03.651Z,8.68
2023-02-03T08:26:09.634Z,7.93
2023-02-03T08:32:22.428Z,9.68
2023-02-03T08:35:29.876Z,9.07
2023-02-03T08:42:12.859Z,15.13
2023-02-03T08:45:19.062Z,14.23
2023-02-03T08:48:24.788Z,17.17
2023-02-03T08:51:30.963Z,13.13
2023-02-03T08:54:37.179Z,16.75
2023-02-03T08:57:44.079Z,17.90
2023-02-03T09:00:50.958Z,17.02
2023-02-03T09:03:57.061Z,18.08
2023-02-03T09:07:05.760Z,25.33
2023-02-03T09:10:11.744Z,26.98
2023-02-03T09:13:18.360Z,27.08
2023-02-03T09:16:24.696Z,38.45
2023-02-03T09:19:31.523Z,39.25
2023-02-03T09:22:37.311Z,26.70
2023-02-03T09:25:46.285Z,35.05
2023-02-03T09:28:51.622Z,31.45
2023-02-03T09:35:06.065Z,32.28
2023-02-03T09:38:11.736Z,44.67
2023-02-03T09:41:52.305Z,110.45
2023-02-03T09:45:19.206Z,63.83
2023-02-03T09:48:32.873Z,56.67
2023-02-03T09:51:50.531Z,54.17
2023-02-03T09:55:07.016Z,50.97
2023-02-03T09:58:24.503Z,63.38
2023-02-03T10:01:55.545Z,58.10
2023-02-03T10:05:09.755Z,69.80
2023-02-03T10:08:51.187Z,99.40
2023-02-03T10:12:25.618Z,86.35
2023-02-03T10:16:03.083Z,95.97
2023-02-03T10:19:17.479Z,112.82
2023-02-03T10:22:29.104Z,101.33
2023-02-03T10:25:43.061Z,96.00
2023-02-03T10:29:19.183Z,86.05
2023-02-03T10:32:31.273Z,77.10
2023-02-03T10:35:58.536Z,72.88
2023-02-03T10:39:13.262Z,101.05
2023-02-03T10:42:18.458Z,183.25
2023-02-03T10:45:25.808Z,143.40
2023-02-03T10:48:32.194Z,166.35
2023-02-03T10:51:52.893Z,155.23
2023-02-03T10:55:00.209Z,98.80
2023-02-03T10:58:17.240Z,66.50
2023-02-03T11:01:27.570Z,48.08
2023-02-03T11:04:34.825Z,37.53
2023-02-03T11:07:40.674Z,41.55
2023-02-03T11:11:04.075Z,43.10
2023-02-03T11:17:46.917Z,45.17
2023-02-03T11:20:54.327Z,47.10
2023-02-03T11:24:27.454Z,42.95
2023-02-03T11:27:35.686Z,37.50
2023-02-03T11:30:45.358Z,30.77
2023-02-03T11:34:01.138Z,31.90
2023-02-03T11:37:33.357Z,34.08
2023-02-03T11:40:40.788Z,29.60
2023-02-03T11:43:48.045Z,32.85
2023-02-03T11:46:57.850Z,26.70
2023-02-03T11:50:24.983Z,26.33
2023-02-03T11:53:57.014Z,30.77
2023-02-03T11:57:39.806Z,33.97
2023-02-03T12:01:14.998Z,35.97
2023-02-03T12:05:01.385Z,33.22
2023-02-03T12:08:15.888Z,40.50
2023-02-03T12:12:12.040Z,36.72
2023-02-03T12:15:57.762Z,35.53
2023-02-03T12:19:22.880Z,26.27
2023-02-03T12:22:36.465Z,32.07
2023-02-03T12:26:07.474Z,29.90
2023-02-03T12:29:21.610Z,38.33
2023-02-03T12:32:39.199Z,33.13
2023-02-03T12:35:55.524Z,47.78
2023-02-03T12:39:13.870Z,44.22
2023-02-03T12:42:35.860Z,26.85
2023-02-03T12:45:49.148Z,25.75
2023-02-03T12:49:08.479Z,30.15
2023-02-03T12:52:37.652Z,27.10
2023-02-03T12:55:55.907Z,212.32
2023-02-03T12:59:22.230Z,128.13
2023-02-03T13:02:34.037Z,345.83
2023-02-03T13:05:49.428Z,44.70
2023-02-03T13:09:39.834Z,28.92
2023-02-03T13:12:52.953Z,28.13
2023-02-03T13:15:59.719Z,27.85
2023-02-03T13:19:19.948Z,36.95
2023-02-03T13:22:27.908Z,37.17
2023-02-03T13:26:13.112Z,30.65
2023-02-03T13:29:24.375Z,43.63
2023-02-03T13:32:47.689Z,56.80
2023-02-03T13:36:02.638Z,123.28
2023-02-03T13:39:39.915Z,90.18
2023-02-03T13:43:07.643Z,57.40
2023-02-03T13:46:30.588Z,90.50
2023-02-03T13:49:38.039Z,90.85
2023-02-03T13:53:25.333Z,98.03
2023-02-03T13:56:33.628Z,100.38
2023-02-03T13:59:39.794Z,79.38
2023-02-03T14:02:53.878Z,54.45
2023-02-03T14:06:02.538Z,43.92
2023-02-03T14:09:32.471Z,52.13
2023-02-03T14:12:41.191Z,48.22
2023-02-03T14:16:07.030Z,37.33
2023-02-03T14:19:34.301Z,51.97
2023-02-03T14:22:41.353Z,49.20
2023-02-03T14:25:52.400Z,63.03
2023-02-03T14:28:58.368Z,43.95
2023-02-03T14:32:10.744Z,44.45
2023-02-03T14:35:21.251Z,50.33
2023-02-03T14:38:34.172Z,48.95
2023-02-03T14:41:47.869Z,53.58
2023-02-03T14:45:09.742Z,45.15
2023-02-03T14:48:24.078Z,52.60
2023-02-03T14:51:47.855Z,47.72
2023-02-03T14:55:07.180Z,25.38
2023-02-03T14:58:37.568Z,13.98
2023-02-03T15:01:42.947Z,23.38
2023-02-03T15:04:51.566Z,18.63
2023-02-03T15:07:57.482Z,13.73
2023-02-03T15:11:33.190Z,11.63
2023-02-03T15:14:39.543Z,10.38
2023-02-03T15:17:45.509Z,15.18
2023-02-03T15:20:55.382Z,15.68
2023-02-03T15:24:01.844Z,11.98
2023-02-03T15:27:23.078Z,10.60
2023-02-03T15:30:30.751Z,12.60
2023-02-03T15:33:39.595Z,7.95
2023-02-03T15:36:50.928Z,11.68
2023-02-03T15:40:18.520Z,11.52
2023-02-03T15:43:40.250Z,8.52
2023-02-03T15:46:52.663Z,13.75
2023-02-03T15:50:18.084Z,15.40
2023-02-03T15:53:41.087Z,15.18
2023-02-03T15:57:11.623Z,10.38
2023-02-03T16:00:32.151Z,12.77
2023-02-03T16:03:46.075Z,8.98
2023-02-03T16:06:54.923Z,14.13
2023-02-03T16:10:03.779Z,13.63
2023-02-03T16:13:26.735Z,10.68
2023-02-03T16:16:43.689Z,8.90
2023-02-03T16:20:13.641Z,9.20
2023-02-03T16:23:24.521Z,8.88
2023-02-03T16:26:32.388Z,9.55
2023-02-03T16:29:56.920Z,7.10
2023-02-03T16:33:29.493Z,8.85
2023-02-03T16:36:59.979Z,16.77
2023-02-03T16:40:24.562Z,10.38
2023-02-03T16:43:48.842Z,12.43
2023-02-03T16:47:16.407Z,9.50
2023-02-03T16:51:02.330Z,6.05
2023-02-03T16:54:15.763Z,9.70
2023-02-03T16:57:24.918Z,10.80
2023-02-03T17:00:42.255Z,9.52
2023-02-03T17:04:12.843Z,10.50
2023-02-03T17:07:18.257Z,6.80
2023-02-03T17:10:25.224Z,4.70
2023-02-03T17:13:31.351Z,9.07
2023-02-03T17:16:37.845Z,9.93
2023-02-03T17:19:43.298Z,8.00
2023-02-03T17:22:52.541Z,9.40
2023-02-03T17:25:58.803Z,7.63
2023-02-03T17:29:05.614Z,10.82
2023-02-03T17:32:15.698Z,7.28
2023-02-03T17:35:21.628Z,7.00
2023-02-03T17:38:27.416Z,7.35
2023-02-03T17:55:04.745Z,22.55
2023-02-03T17:58:10.465Z,38.85
2023-02-03T18:01:20.818Z,27.92
2023-02-03T18:04:24.627Z,24.05
2023-02-03T18:07:29.260Z,14.60
2023-02-03T18:10:35.218Z,15.48
2023-02-03T18:13:45.591Z,21.90
2023-02-03T18:16:53.961Z,22.27
2023-02-03T18:20:01.559Z,23.65
2023-02-03T18:23:08.018Z,18.08
2023-02-03T18:26:14.821Z,18.90
2023-02-03T18:29:21.600Z,21.23
2023-02-03T18:32:27.520Z,21.25
2023-02-03T18:35:34.385Z,19.50
2023-02-03T18:38:42.510Z,13.63
2023-02-03T18:41:48.261Z,22.30
2023-02-03T18:44:54.345Z,26.30
2023-02-03T18:47:59.768Z,22.92
2023-02-03T18:51:10.233Z,27.33
2023-02-03T18:54:15.690Z,24.13
2023-02-03T18:57:25.035Z,26.45
2023-02-03T19:00:30.915Z,22.85
2023-02-03T19:03:38.714Z,13.50
2023-02-03T19:06:46.265Z,16.35
2023-02-03T19:09:59.910Z,16.27
2023-02-03T19:13:05.357Z,15.48
2023-02-03T19:16:15.075Z,9.98
2023-02-03T19:19:21.229Z,14.02
2023-02-03T19:22:27.146Z,16.08
2023-02-03T19:25:32.536Z,12.50
2023-02-03T19:28:41.212Z,11.30
2023-02-03T19:31:46.912Z,8.73
2023-02-03T19:34:52.989Z,18.60
2023-02-03T19:37:58.779Z,21.40
2023-02-03T19:41:05.518Z,16.10
2023-02-03T19:44:11.350Z,20.48
2023-02-03T19:47:17.596Z,12.93
2023-02-03T19:50:22.985Z,16.50
2023-02-03T19:53:29.396Z,8.48
2023-02-03T19:56:34.883Z,22.00
2023-02-03T19:59:40.778Z,18.33
2023-02-03T20:02:46.336Z,14.00
2023-02-03T20:05:55.666Z,19.73
2023-02-03T20:09:01.145Z,14.13
2023-02-03T20:12:07.652Z,16.17
2023-02-03T20:15:11.532Z,14.60
2023-02-03T20:18:17.583Z,15.95
2023-02-03T20:21:23.155Z,6.10
2023-02-03T20:24:29.336Z,3.17
2023-02-03T20:27:34.739Z,6.13
2023-02-03T20:30:41.783Z,5.03
2023-02-03T20:33:45.578Z,4.95
2023-02-03T20:36:53.201Z,6.70
2023-02-03T20:39:59.148Z,6.20
2023-02-03T20:43:16.566Z,7.50
2023-02-03T20:46:22.744Z,9.90
2023-02-03T20:49:29.203Z,9.55
2023-02-03T20:52:35.121Z,17.55
2023-02-03T20:55:41.091Z,12.32
2023-02-03T20:58:46.929Z,20.38
2023-02-03T21:01:53.409Z,12.98
2023-02-03T21:04:59.699Z,11.60
2023-02-03T21:08:18.457Z,14.75
2023-02-03T21:11:28.184Z,17.55
2023-02-03T21:14:40.481Z,11.32
2023-02-03T21:17:44.561Z,14.65
2023-02-03T21:23:56.508Z,12.68
2023-02-03T21:27:03.857Z,12.63
2023-02-03T21:30:33.310Z,13.82
2023-02-03T21:33:46.578Z,19.13
2023-02-03T21:36:51.971Z,20.38
2023-02-03T21:39:58.352Z,13.57
2023-02-03T21:43:04.034Z,12.80
2023-02-03T21:46:23.268Z,17.27
2023-02-03T21:49:30.339Z,16.85
2023-02-03T21:52:36.399Z,17.45
2023-02-03T21:55:43.508Z,16.15
2023-02-03T21:58:51.684Z,8.65
2023-02-03T22:02:00.577Z,13.20
2023-02-03T22:05:06.741Z,12.07
2023-02-03T22:08:23.545Z,15.77
2023-02-03T22:11:31.200Z,11.93
2023-02-03T22:14:37.513Z,13.25
2023-02-03T22:17:42.707Z,20.30
2023-02-03T22:20:46.698Z,18.10
2023-02-03T22:23:53.095Z,14.43
2023-02-03T22:27:00.882Z,26.58
2023-02-03T22:30:06.943Z,18.00
2023-02-03T22:33:12.658Z,16.45
2023-02-03T22:36:18.561Z,24.90
2023-02-03T22:39:24.206Z,20.92
2023-02-03T22:42:30.671Z,23.77
2023-02-03T22:45:36.412Z,18.95
2023-02-03T22:48:42.656Z,17.25
2023-02-03T22:51:47.097Z,19.92
2023-02-03T22:54:54.997Z,19.85
2023-02-03T22:58:00.690Z,23.50
2023-02-03T23:01:06.536Z,14.52
2023-02-03T23:04:12.744Z,16.73
2023-02-03T23:07:19.098Z,20.85
2023-02-03T23:10:27.474Z,15.80
2023-02-03T23:13:32.988Z,18.80
2023-02-03T23:16:39.038Z,27.85
2023-02-03T23:19:43.352Z,13.73
2023-02-03T23:22:48.597Z,19.10
2023-02-03T23:25:54.711Z,22.17
2023-02-03T23:29:00.470Z,28.88
2023-02-03T23:32:07.265Z,11.30
2023-02-03T23:35:32.549Z,8.90
2023-02-03T23:38:39.176Z,12.65
2023-02-03T23:41:44.885Z,14.70
2023-02-03T23:44:50.550Z,10.38
2023-02-03T23:47:56.324Z,12.95
2023-02-03T23:51:02.599Z,18.55
2023-02-03T23:54:08.751Z,12.63
2023-02-03T23:57:14.808Z,15.82
